Rockland, ME

11:23 AM EST on March 03, 2015 (GMT -0500)
Augusta State | Change Station
CLOSE
Current Station
Airport
Location: Augusta,
Elevation: 351 ft
Nearby Weather Stations
Active Advisory: Winter Weather Advisory

Elev 351 ft 44.32 °N, 69.80 °W | Updated 30 minutes ago

Clear
Clear
20 °F
Feels Like 10 °F
N
8
Wind Variable Wind from West

Today
High -- | Low -- °F
--% Chance of Precip.
Yesterday
High -- | Low -- °F
Precip. -- in
6:10 AM 5:27 PM
Waxing Gibbous, 96% visible
Pressure 30.35 in
Visibility 10.0 miles
Clouds Clear
Windchill 10 °F
Dew Point -7 °F
Humidity 30%
Rainfall 0.00 in
Snow Depth Not available.
UV 5 out of 12
Pollen .30 out of 12
Air Quality Not available.
Flu Activity Not available.
METAR KAUG 031553Z AUTO 26007KT 10SM CLR M07/M22 A3033 RMK AO2 SLP278 T10671217

More Conditions Fewer Conditions

Pressure 30.35 in
Visibility 10.0 miles
Clouds Clear
Windchill 10 °F
Dew Point -7 °F
Humidity 30%
Rainfall 0.00 in
Snow Depth Not available.
UV 5 out of 12
Pollen .30 out of 12
Air Quality Not available.
Flu Activity Not available.
METAR KAUG 031553Z AUTO 26007KT 10SM CLR M07/M22 A3033 RMK AO2 SLP278 T10671217

More Conditions Fewer Conditions

10-Day Weather Forecast

Almanac

Astronomy

Mar. 03, 2015 Rise Set
Actual Time
Civil Twilight
Nautical Twilight
Astronomical Twilight
Moon
Length of Visible Light
Length of Day
Tomorrow will be .
, % of the Moon is Illuminated

Today's Extremes

State Highs State Lows

Community

WunderPhotos

Upload Photos

1,802,156 photos uploaded!

WunderBlogs® & News

Nearby

Air Quality

  Air Quality AQ Index Pollutant
Not available.

Snow Depth

Station Depth Elevation

Earthquake Activity

City Distance Mag. Time & Date
Minimum magnitude displayed is 2.5.

Coastal Water Temperatures

Place Temperature

Nearby Weather Stations

Winter Weather Advisory
Statement as of 11:01 AM EST on March 03, 2015

... Winter Weather Advisory remains in effect from 7 PM this
evening to 7 am EST Wednesday...

* hazard types..snow.

* Accumulations... snow accumulation of 3 to 5 inches.

* Timing... snow will begin this evening and end around sunrise
on Wednesday.

* Impacts... roads will become snow covered and slippery.

* Winds... southwest 5 to 15 mph with gusts up to 25 mph.

* Temperatures... in the lower 20s.

Precautionary/preparedness actions...

A Winter Weather Advisory for snow means that periods of snow
will cause primarily travel difficulties. Be prepared for snow
covered roads and limited visibilities... and use caution while
driving.